Time;durP1;ratioP1;P1;durP2;ratioP2;P2;SDS_P1;SDS_P2;PMS_P1;PMS_P2;Temp;Humidity;BMP_temperature;BMP_pressure;BME280_temperature;BME280_humidity;BME280_pressure;Samples;Min_cycle;Max_cycle;Signal;HPM_P1;HPM_P2
2023/01/25 00:01:57;;;;;;;57.47;29.02;;;1.00;99.90;;;;;;5079101;28;20046;-80
2023/01/25 00:04:23;;;;;;;56.47;29.25;;;1.00;99.90;;;;;;5065798;28;20051;-80
2023/01/25 00:06:49;;;;;;;59.97;29.90;;;1.10;99.90;;;;;;5075484;28;20075;-80
2023/01/25 00:09:15;;;;;;;59.85;30.00;;;1.00;99.90;;;;;;5089203;27;20047;-80
2023/01/25 00:11:42;;;;;;;56.08;29.33;;;1.10;99.90;;;;;;5072498;28;20050;-80
2023/01/25 00:14:09;;;;;;;55.83;29.05;;;1.00;99.90;;;;;;5089297;28;20036;-79
2023/01/25 00:16:36;;;;;;;57.38;29.58;;;1.00;99.90;;;;;;5076044;28;20052;-84
2023/01/25 00:19:02;;;;;;;59.33;29.98;;;1.00;99.90;;;;;;5085609;28;20389;-79
2023/01/25 00:21:27;;;;;;;58.85;29.15;;;1.00;99.90;;;;;;5075447;28;20048;-84
2023/01/25 00:23:54;;;;;;;55.22;28.77;;;1.00;99.90;;;;;;5066284;28;20062;-80
2023/01/25 00:26:20;;;;;;;59.35;29.73;;;0.90;99.90;;;;;;5068979;28;20497;-80
2023/01/25 00:28:50;;;;;;;60.35;30.95;;;0.80;99.90;;;;;;5074797;28;20051;-80
2023/01/25 00:31:32;;;;;;;62.65;29.80;;;0.80;99.90;;;;;;5087290;28;20040;-80
2023/01/25 00:34:24;;;;;;;63.03;31.80;;;0.90;99.90;;;;;;5087499;28;20463;-79
2023/01/25 00:37:00;;;;;;;56.78;29.77;;;0.90;99.90;;;;;;5068851;28;20044;-81
2023/01/25 00:39:26;;;;;;;58.90;29.73;;;0.80;99.90;;;;;;5064874;28;20051;-81
2023/01/25 00:41:52;;;;;;;62.00;29.92;;;0.90;99.90;;;;;;5092635;28;20074;-86
2023/01/25 00:44:18;;;;;;;59.63;30.35;;;0.90;99.90;;;;;;5070506;28;20059;-80
2023/01/25 00:46:44;;;;;;;60.05;30.77;;;0.90;99.90;;;;;;5085321;28;20374;-81
2023/01/25 00:49:24;;;;;;;59.17;29.70;;;0.90;99.90;;;;;;5070657;28;20051;-83
2023/01/25 00:51:51;;;;;;;60.05;30.58;;;0.90;99.90;;;;;;5097132;28;20085;-86
2023/01/25 00:54:19;;;;;;;56.88;29.48;;;0.90;99.90;;;;;;5085925;28;20400;-80
2023/01/25 00:56:45;;;;;;;56.17;29.35;;;0.90;99.90;;;;;;5081937;28;20121;-82
2023/01/25 00:59:12;;;;;;;58.38;29.05;;;0.90;99.90;;;;;;5094522;28;20039;-84
2023/01/25 01:01:40;;;;;;;59.15;30.25;;;0.90;99.90;;;;;;5078810;28;20058;-80
2023/01/25 01:04:05;;;;;;;58.70;30.08;;;0.90;99.90;;;;;;5095834;28;20051;-80
2023/01/25 01:06:34;;;;;;;60.70;30.40;;;0.90;99.90;;;;;;5060319;28;20046;-80
2023/01/25 01:09:00;;;;;;;59.78;30.02;;;0.90;99.90;;;;;;5063518;28;20052;-80
2023/01/25 01:11:25;;;;;;;61.38;30.13;;;0.90;99.90;;;;;;5067426;27;20047;-80
2023/01/25 01:13:51;;;;;;;62.15;31.05;;;0.80;99.90;;;;;;5090196;28;20039;-81
2023/01/25 01:16:17;;;;;;;61.38;31.10;;;0.90;99.90;;;;;;5057756;27;20038;-80
2023/01/25 01:18:44;;;;;;;58.05;28.40;;;0.90;99.90;;;;;;5092850;28;20225;-87
2023/01/25 01:21:11;;;;;;;59.38;28.75;;;0.80;99.90;;;;;;5093785;28;20720;-81
2023/01/25 01:23:37;;;;;;;60.08;30.38;;;0.80;99.90;;;;;;5077815;28;20566;-80
2023/01/25 01:26:05;;;;;;;61.15;30.45;;;0.80;99.90;;;;;;5084248;28;20220;-80
2023/01/25 01:28:32;;;;;;;63.05;31.52;;;0.80;99.90;;;;;;5066592;28;20048;-81
2023/01/25 01:31:03;;;;;;;57.42;30.25;;;0.80;99.90;;;;;;5077571;28;20089;-80
2023/01/25 01:33:29;;;;;;;56.67;28.55;;;0.80;99.90;;;;;;5080579;28;20051;-80
2023/01/25 01:35:54;;;;;;;58.28;30.25;;;0.80;99.90;;;;;;5056460;28;20043;-81
2023/01/25 01:38:20;;;;;;;61.45;29.33;;;0.80;99.90;;;;;;5058750;28;20055;-81
2023/01/25 01:40:47;;;;;;;60.58;30.60;;;0.80;99.90;;;;;;5078584;28;20054;-86
2023/01/25 01:43:21;;;;;;;55.17;28.52;;;0.70;99.90;;;;;;5082697;28;20073;-80
2023/01/25 01:45:49;;;;;;;56.20;29.00;;;0.70;99.90;;;;;;5089788;28;20051;-84
2023/01/25 01:48:18;;;;;;;68.75;33.10;;;0.70;99.90;;;;;;5064187;28;20518;-82
2023/01/25 01:50:45;;;;;;;63.72;30.83;;;0.70;99.90;;;;;;5094056;28;20063;-81
2023/01/25 01:53:10;;;;;;;64.47;31.00;;;0.80;99.90;;;;;;5047932;28;20052;-81
2023/01/25 01:55:36;;;;;;;67.32;31.25;;;0.70;99.90;;;;;;5087091;28;20101;-81
2023/01/25 01:58:05;;;;;;;64.22;31.10;;;0.70;99.90;;;;;;5053734;27;20068;-81
2023/01/25 02:00:37;;;;;;;65.70;31.30;;;0.70;99.90;;;;;;5082384;28;20043;-80
2023/01/25 02:03:03;;;;;;;63.45;31.15;;;0.70;99.90;;;;;;5080035;27;20090;-80
2023/01/25 02:05:49;;;;;;;65.93;31.55;;;0.70;99.90;;;;;;5042096;28;20565;-79
2023/01/25 02:08:16;;;;;;;63.58;30.98;;;0.70;99.90;;;;;;5085813;28;20129;-80
2023/01/25 02:10:43;;;;;;;61.63;30.33;;;0.70;99.90;;;;;;5075205;28;20055;-80
2023/01/25 02:13:09;;;;;;;61.88;30.50;;;0.60;99.90;;;;;;5088645;28;20047;-80
2023/01/25 02:15:46;;;;;;;65.63;30.48;;;0.60;99.90;;;;;;5084578;28;20052;-81
2023/01/25 02:18:13;;;;;;;68.15;32.00;;;0.60;99.90;;;;;;5058414;28;20516;-83
2023/01/25 02:20:42;;;;;;;69.25;33.33;;;0.50;99.90;;;;;;5084725;28;20517;-80
2023/01/25 02:23:39;;;;;;;68.35;33.58;;;0.50;99.90;;;;;;5068596;28;20052;-80
2023/01/25 02:26:08;;;;;;;68.07;30.92;;;0.50;99.90;;;;;;5075127;28;20044;-80
2023/01/25 02:28:36;;;;;;;64.55;31.83;;;0.60;99.90;;;;;;5084092;28;20048;-81
2023/01/25 02:31:02;;;;;;;65.35;32.13;;;0.60;99.90;;;;;;5072143;28;20043;-80
2023/01/25 02:33:27;;;;;;;70.63;33.63;;;0.50;99.90;;;;;;5076115;28;20393;-80
2023/01/25 02:35:57;;;;;;;71.85;34.53;;;0.50;99.90;;;;;;5066668;28;20047;-85
2023/01/25 02:38:23;;;;;;;64.28;31.90;;;0.60;99.90;;;;;;5073972;28;20051;-84
2023/01/25 02:41:05;;;;;;;72.15;34.15;;;0.60;99.90;;;;;;5068924;28;20051;-80
2023/01/25 02:43:33;;;;;;;70.15;33.08;;;0.60;99.90;;;;;;5087448;28;20689;-80
2023/01/25 02:46:30;;;;;;;73.20;34.58;;;0.60;99.90;;;;;;5062967;28;20688;-79
2023/01/25 02:48:57;;;;;;;73.07;33.58;;;0.60;99.90;;;;;;5074061;28;20056;-81
2023/01/25 02:51:26;;;;;;;73.57;34.05;;;0.50;99.90;;;;;;5056103;28;20036;-80
2023/01/25 02:53:52;;;;;;;70.05;34.22;;;0.60;99.90;;;;;;5085299;28;20054;-80
2023/01/25 02:56:18;;;;;;;71.68;34.45;;;0.60;99.90;;;;;;5068359;28;20040;-80
2023/01/25 02:58:45;;;;;;;74.05;35.63;;;0.60;99.90;;;;;;5057623;28;20052;-80
2023/01/25 03:01:12;;;;;;;78.57;36.20;;;0.50;99.90;;;;;;5081863;28;20072;-79
2023/01/25 03:03:38;;;;;;;74.05;35.05;;;0.50;99.90;;;;;;5076472;28;20048;-80
2023/01/25 03:06:04;;;;;;;74.85;37.50;;;0.50;99.90;;;;;;5090139;28;20497;-79
2023/01/25 03:08:30;;;;;;;74.18;34.67;;;0.40;99.90;;;;;;5084972;28;20142;-81
2023/01/25 03:10:58;;;;;;;77.32;36.63;;;0.30;99.90;;;;;;5080530;28;20552;-80
2023/01/25 03:13:24;;;;;;;75.07;35.03;;;0.20;99.90;;;;;;5094676;28;20073;-79
2023/01/25 03:15:50;;;;;;;76.25;35.67;;;0.20;99.90;;;;;;5092052;28;20052;-79
2023/01/25 03:18:16;;;;;;;75.72;34.83;;;0.20;99.90;;;;;;5088287;28;20051;-80
2023/01/25 03:20:42;;;;;;;72.97;35.65;;;0.10;99.90;;;;;;5068480;28;20048;-80
2023/01/25 03:23:07;;;;;;;72.03;34.33;;;0.10;99.90;;;;;;5047595;28;20101;-80
2023/01/25 03:25:33;;;;;;;76.10;35.22;;;0.20;99.90;;;;;;5072781;28;20523;-81
2023/01/25 03:27:59;;;;;;;77.72;36.83;;;0.20;99.90;;;;;;5069094;28;20108;-84
2023/01/25 03:30:24;;;;;;;78.47;35.88;;;0.30;99.90;;;;;;5081426;28;20397;-81
2023/01/25 03:32:51;;;;;;;76.57;36.95;;;0.20;99.90;;;;;;5097193;28;20078;-80
2023/01/25 03:35:17;;;;;;;78.50;35.95;;;0.20;99.90;;;;;;5076284;28;20047;-80
2023/01/25 03:37:43;;;;;;;75.35;36.63;;;0.20;99.90;;;;;;5061778;28;20101;-80
2023/01/25 03:40:09;;;;;;;79.45;37.17;;;0.20;99.90;;;;;;5100641;28;20044;-79
2023/01/25 03:42:35;;;;;;;78.18;36.08;;;0.30;99.90;;;;;;5094385;28;20094;-79
2023/01/25 03:45:01;;;;;;;80.72;36.97;;;0.20;99.90;;;;;;5082885;28;20513;-84
2023/01/25 03:47:27;;;;;;;76.18;37.92;;;0.20;99.90;;;;;;5070505;28;20043;-82
2023/01/25 03:49:53;;;;;;;79.07;36.70;;;0.20;99.90;;;;;;5089491;27;20116;-79
2023/01/25 03:52:18;;;;;;;84.53;38.85;;;0.10;99.90;;;;;;5087770;28;20454;-81
2023/01/25 03:54:44;;;;;;;79.57;36.00;;;0.10;99.90;;;;;;5080998;28;20491;-81
2023/01/25 03:57:10;;;;;;;80.68;37.53;;;0.20;99.90;;;;;;5095333;28;20035;-80
2023/01/25 03:59:35;;;;;;;75.72;35.97;;;0.10;99.90;;;;;;5068477;28;20109;-80
2023/01/25 04:02:01;;;;;;;75.57;35.83;;;0.10;99.90;;;;;;5092760;28;20399;-80
2023/01/25 04:04:28;;;;;;;76.82;36.33;;;0.10;99.90;;;;;;5068824;27;20040;-79
2023/01/25 04:06:53;;;;;;;78.00;36.15;;;0.10;99.90;;;;;;5098798;28;20051;-80
2023/01/25 04:09:19;;;;;;;74.90;35.45;;;0.10;99.90;;;;;;5094054;28;20404;-79
2023/01/25 04:11:47;;;;;;;75.55;35.90;;;0.10;99.90;;;;;;5092279;28;20473;-81
2023/01/25 04:14:13;;;;;;;72.18;34.22;;;0.10;99.90;;;;;;5063974;28;20551;-79
2023/01/25 04:16:38;;;;;;;71.72;34.33;;;0.00;99.90;;;;;;5068468;28;20044;-79
2023/01/25 04:19:04;;;;;;;71.10;33.10;;;0.00;99.90;;;;;;5061043;28;20051;-80
2023/01/25 04:21:30;;;;;;;65.93;32.00;;;0.00;99.90;;;;;;5081505;28;20052;-79
2023/01/25 04:23:56;;;;;;;69.60;33.00;;;0.00;99.90;;;;;;5087046;28;20062;-80
2023/01/25 04:26:21;;;;;;;71.20;33.10;;;-0.10;99.90;;;;;;5069563;28;20059;-79
2023/01/25 04:28:47;;;;;;;72.13;33.47;;;-0.10;99.90;;;;;;5087368;28;20090;-81
2023/01/25 04:31:13;;;;;;;71.25;35.28;;;-0.10;99.90;;;;;;5073787;28;20043;-80
2023/01/25 04:33:38;;;;;;;72.40;34.58;;;-0.10;99.90;;;;;;5050590;28;20481;-79
2023/01/25 04:36:04;;;;;;;69.18;32.78;;;0.00;99.90;;;;;;5085187;28;20148;-79
2023/01/25 04:38:30;;;;;;;74.22;35.38;;;-0.10;99.90;;;;;;5057531;27;20043;-83
2023/01/25 04:40:56;;;;;;;77.18;35.65;;;-0.10;99.90;;;;;;5049228;28;20048;-82
2023/01/25 04:43:21;;;;;;;72.13;33.42;;;-0.20;99.90;;;;;;5078415;28;20515;-80
2023/01/25 04:45:47;;;;;;;74.55;34.92;;;-0.20;99.90;;;;;;5075691;28;20035;-80
2023/01/25 04:48:14;;;;;;;70.60;34.92;;;0.00;99.90;;;;;;5064961;28;20051;-79
2023/01/25 04:50:41;;;;;;;71.65;34.45;;;-0.10;99.90;;;;;;5080173;28;20048;-82
2023/01/25 04:53:09;;;;;;;75.47;35.50;;;-0.10;99.90;;;;;;5073845;28;20044;-80
2023/01/25 04:55:35;;;;;;;78.22;36.78;;;-0.10;99.90;;;;;;5086577;28;20048;-81
2023/01/25 04:58:01;;;;;;;71.28;34.00;;;-0.10;99.90;;;;;;5071273;28;20390;-80
2023/01/25 05:00:28;;;;;;;73.10;34.45;;;-0.10;99.90;;;;;;5076645;28;20047;-79
2023/01/25 05:02:54;;;;;;;74.43;34.75;;;0.00;99.90;;;;;;5063526;28;20056;-80
2023/01/25 05:05:19;;;;;;;75.03;35.45;;;-0.10;99.90;;;;;;5093384;28;20511;-79
2023/01/25 05:07:45;;;;;;;76.25;35.63;;;-0.10;99.90;;;;;;5055167;28;20044;-79
2023/01/25 05:10:11;;;;;;;73.47;34.45;;;0.00;99.90;;;;;;5059873;28;20069;-79
2023/01/25 05:12:37;;;;;;;76.65;35.88;;;0.00;99.90;;;;;;5075804;28;20059;-75
2023/01/25 05:15:03;;;;;;;75.50;35.67;;;0.10;99.90;;;;;;5067920;28;20280;-80
2023/01/25 05:17:29;;;;;;;71.90;34.47;;;0.00;99.90;;;;;;5067043;28;20086;-79
2023/01/25 05:19:54;;;;;;;76.47;35.47;;;0.00;99.90;;;;;;5059486;28;20090;-79
2023/01/25 05:22:20;;;;;;;74.05;36.20;;;0.10;99.90;;;;;;5075685;28;20044;-79
2023/01/25 05:24:47;;;;;;;75.85;35.13;;;0.00;99.90;;;;;;5085948;28;20621;-79
2023/01/25 05:27:16;;;;;;;77.22;35.83;;;0.00;99.90;;;;;;5057278;28;20047;-80
2023/01/25 05:29:43;;;;;;;74.60;35.00;;;0.00;99.90;;;;;;5092377;28;20051;-80
2023/01/25 05:32:13;;;;;;;75.05;34.95;;;-0.10;99.90;;;;;;5091949;28;20036;-79
2023/01/25 05:34:39;;;;;;;73.32;32.60;;;-0.10;99.90;;;;;;5093882;28;20132;-79
2023/01/25 05:37:06;;;;;;;74.15;35.45;;;-0.10;99.90;;;;;;5094774;28;20043;-80
2023/01/25 05:39:35;;;;;;;73.15;34.10;;;-0.20;99.90;;;;;;5071706;28;20120;-80
2023/01/25 05:42:01;;;;;;;72.85;34.42;;;-0.20;99.90;;;;;;5083181;28;20051;-79
2023/01/25 05:44:26;;;;;;;73.18;35.28;;;-0.20;99.90;;;;;;5089773;28;20051;-80
2023/01/25 05:46:52;;;;;;;74.45;35.42;;;-0.20;99.90;;;;;;5092564;28;20046;-80
2023/01/25 05:49:18;;;;;;;72.93;34.67;;;-0.10;99.90;;;;;;5076179;28;20137;-80
2023/01/25 05:51:45;;;;;;;71.53;33.85;;;-0.20;99.90;;;;;;5073278;28;20468;-80
2023/01/25 05:54:16;;;;;;;75.13;35.17;;;-0.10;99.90;;;;;;5057865;28;20043;-81
2023/01/25 05:56:42;;;;;;;73.47;34.58;;;-0.20;99.90;;;;;;5066391;28;20100;-81
2023/01/25 05:59:10;;;;;;;71.43;31.75;;;-0.20;99.90;;;;;;5088263;28;20478;-81
2023/01/25 06:01:37;;;;;;;66.95;31.23;;;-0.30;99.90;;;;;;5083321;28;20058;-83
2023/01/25 06:04:03;;;;;;;67.85;33.05;;;-0.30;99.90;;;;;;5076696;28;20047;-80
2023/01/25 06:06:28;;;;;;;67.22;31.38;;;-0.30;99.90;;;;;;5085070;28;20397;-81
2023/01/25 06:08:54;;;;;;;66.78;32.33;;;-0.30;99.90;;;;;;5067622;28;20035;-80
2023/01/25 06:11:22;;;;;;;62.75;30.08;;;-0.30;99.90;;;;;;5046326;28;20180;-83
2023/01/25 06:13:49;;;;;;;61.90;30.65;;;-0.20;99.90;;;;;;5055474;27;20154;-81
2023/01/25 06:16:16;;;;;;;66.65;31.90;;;-0.30;99.90;;;;;;5077325;28;20483;-82
2023/01/25 06:18:43;;;;;;;67.75;31.58;;;-0.30;99.90;;;;;;5071281;28;20478;-81
2023/01/25 06:21:09;;;;;;;65.60;31.52;;;-0.30;99.90;;;;;;5067818;28;20062;-81
2023/01/25 06:23:35;;;;;;;64.57;31.63;;;-0.30;99.90;;;;;;5078492;28;20440;-81
2023/01/25 06:26:03;;;;;;;65.15;31.67;;;-0.30;99.90;;;;;;5081918;28;20051;-80
2023/01/25 06:28:31;;;;;;;68.32;31.13;;;-0.30;99.90;;;;;;5078064;28;20036;-81
2023/01/25 06:31:02;;;;;;;64.93;29.63;;;-0.30;99.90;;;;;;5078992;28;20036;-80
2023/01/25 06:33:27;;;;;;;72.55;31.67;;;-0.30;99.90;;;;;;5088080;28;20117;-81
2023/01/25 06:35:57;;;;;;;67.38;31.10;;;-0.40;99.90;;;;;;5065820;28;20128;-80
2023/01/25 06:38:23;;;;;;;60.85;29.40;;;-0.30;99.90;;;;;;5079892;28;20044;-83
2023/01/25 06:40:49;;;;;;;62.28;30.80;;;-0.40;99.90;;;;;;5041868;28;20066;-81
2023/01/25 06:43:14;;;;;;;64.05;31.25;;;-0.30;99.90;;;;;;5081209;28;20036;-79
2023/01/25 06:45:40;;;;;;;65.13;30.67;;;-0.30;99.90;;;;;;5071817;28;20116;-81
2023/01/25 06:48:06;;;;;;;67.22;30.95;;;-0.30;99.90;;;;;;5054288;28;20070;-80
2023/01/25 06:50:31;;;;;;;65.10;30.70;;;-0.30;99.90;;;;;;5066597;28;20036;-84
2023/01/25 06:52:57;;;;;;;65.18;31.42;;;-0.30;99.90;;;;;;5076193;28;20058;-82
2023/01/25 06:55:23;;;;;;;63.88;30.08;;;-0.20;99.90;;;;;;5047691;28;20043;-82
2023/01/25 06:57:48;;;;;;;65.85;30.55;;;-0.30;99.90;;;;;;5058749;28;20047;-81
2023/01/25 07:00:15;;;;;;;66.15;30.95;;;-0.30;99.90;;;;;;5063573;28;20049;-84
2023/01/25 07:02:41;;;;;;;65.20;29.75;;;-0.30;99.90;;;;;;5073993;28;20062;-81
2023/01/25 07:05:08;;;;;;;69.85;31.85;;;-0.30;99.90;;;;;;5091430;28;20107;-81
2023/01/25 07:07:34;;;;;;;63.72;30.00;;;-0.30;99.90;;;;;;5086265;28;20055;-80
2023/01/25 07:10:00;;;;;;;68.40;31.70;;;-0.30;99.90;;;;;;5084277;28;20040;-81
2023/01/25 07:12:28;;;;;;;64.70;30.08;;;-0.30;99.90;;;;;;5055650;28;20397;-83
2023/01/25 07:14:54;;;;;;;69.90;32.22;;;-0.30;99.90;;;;;;5073358;28;20104;-80
2023/01/25 07:17:20;;;;;;;60.40;28.35;;;-0.30;99.90;;;;;;5056547;28;20044;-81
2023/01/25 07:19:46;;;;;;;66.60;31.98;;;-0.40;99.90;;;;;;5074737;28;20389;-79
2023/01/25 07:22:11;;;;;;;66.05;30.77;;;-0.40;99.90;;;;;;5095688;27;20074;-80
2023/01/25 07:24:37;;;;;;;66.07;30.38;;;-0.40;99.90;;;;;;5096830;27;20040;-80
2023/01/25 07:27:03;;;;;;;64.40;30.23;;;-0.40;99.90;;;;;;5066106;28;20114;-80
2023/01/25 07:29:29;;;;;;;70.70;32.45;;;-0.30;99.90;;;;;;5094078;28;20131;-79
2023/01/25 07:31:54;;;;;;;65.20;29.85;;;-0.40;99.90;;;;;;5095285;27;20058;-80
2023/01/25 07:34:20;;;;;;;66.47;30.52;;;-0.40;99.90;;;;;;5086717;28;20050;-82
2023/01/25 07:36:46;;;;;;;67.90;31.20;;;-0.40;99.90;;;;;;5089660;28;20036;-80
2023/01/25 07:39:12;;;;;;;66.68;31.92;;;-0.40;99.90;;;;;;5060983;28;20046;-80
2023/01/25 07:41:39;;;;;;;69.93;31.88;;;-0.40;99.90;;;;;;5080899;28;20043;-80
2023/01/25 07:44:05;;;;;;;68.38;30.20;;;-0.40;99.90;;;;;;5082514;28;20044;-80
2023/01/25 07:46:31;;;;;;;63.75;30.10;;;-0.40;99.90;;;;;;5091527;28;20046;-80
2023/01/25 07:48:59;;;;;;;66.97;30.83;;;-0.40;99.90;;;;;;5074826;28;20035;-81
2023/01/25 07:51:29;;;;;;;63.13;30.27;;;-0.40;99.90;;;;;;5061553;28;20040;-80
2023/01/25 07:54:00;;;;;;;70.07;30.05;;;-0.30;99.90;;;;;;5094510;28;20040;-80
2023/01/25 07:56:32;;;;;;;68.43;31.25;;;-0.30;99.90;;;;;;5072555;28;20169;-81
2023/01/25 07:59:01;;;;;;;71.60;32.25;;;-0.30;99.90;;;;;;5076157;27;20125;-80
2023/01/25 08:01:29;;;;;;;67.28;30.25;;;-0.30;99.90;;;;;;5098797;28;20047;-80
2023/01/25 08:03:56;;;;;;;68.32;31.15;;;-0.30;99.90;;;;;;5094348;27;20043;-80
2023/01/25 08:06:29;;;;;;;71.60;32.53;;;-0.30;99.90;;;;;;5106093;27;20036;-80
2023/01/25 08:08:56;;;;;;;66.25;31.33;;;-0.30;99.90;;;;;;5096163;28;20437;-80
2023/01/25 08:11:25;;;;;;;68.47;31.05;;;-0.30;99.90;;;;;;5065119;28;20079;-80
2023/01/25 08:13:51;;;;;;;74.68;31.98;;;-0.30;99.90;;;;;;5084832;27;20504;-82
2023/01/25 08:16:22;;;;;;;75.38;31.67;;;-0.30;99.90;;;;;;5093307;28;20044;-81
2023/01/25 08:18:53;;;;;;;69.90;32.35;;;-0.40;99.90;;;;;;5087314;27;20092;-80
2023/01/25 08:21:20;;;;;;;67.47;30.35;;;-0.40;99.90;;;;;;5072092;28;20466;-81
2023/01/25 08:23:45;;;;;;;70.55;31.58;;;-0.30;99.90;;;;;;5075541;28;20345;-81
2023/01/25 08:26:14;;;;;;;68.78;30.10;;;-0.40;99.90;;;;;;5068019;28;20046;-81
2023/01/25 08:28:39;;;;;;;71.00;32.38;;;-0.40;99.90;;;;;;5086962;28;20402;-88
2023/01/25 08:31:14;;;;;;;69.13;30.23;;;-0.40;99.90;;;;;;5074801;28;20036;-81
2023/01/25 08:33:41;;;;;;;67.95;30.85;;;-0.40;99.90;;;;;;5090958;28;20047;-82
2023/01/25 08:36:08;;;;;;;72.60;32.88;;;-0.40;99.90;;;;;;5056667;28;20048;-81
2023/01/25 08:38:34;;;;;;;73.13;31.08;;;-0.40;99.90;;;;;;5086870;28;20055;-80
2023/01/25 08:41:15;;;;;;;69.75;31.30;;;-0.40;99.90;;;;;;5097924;28;20063;-80
2023/01/25 08:43:42;;;;;;;69.22;31.33;;;-0.40;99.90;;;;;;5086443;28;20379;-85
2023/01/25 08:46:07;;;;;;;68.88;30.70;;;-0.30;99.90;;;;;;5083426;28;20048;-80
2023/01/25 08:48:33;;;;;;;72.10;31.27;;;-0.30;99.90;;;;;;5060929;28;20519;-81
2023/01/25 08:51:00;;;;;;;67.75;30.13;;;-0.30;99.90;;;;;;5058696;28;20392;-81
2023/01/25 08:53:30;;;;;;;70.55;30.80;;;-0.20;99.90;;;;;;5071611;28;20085;-80
2023/01/25 08:56:05;;;;;;;73.47;33.10;;;-0.30;99.90;;;;;;5069723;28;20457;-81
2023/01/25 08:58:31;;;;;;;73.75;33.13;;;-0.30;99.90;;;;;;5096314;28;20040;-80
2023/01/25 09:01:05;;;;;;;67.20;28.60;;;-0.20;99.90;;;;;;5104064;28;20481;-80
2023/01/25 09:03:35;;;;;;;68.35;30.13;;;-0.20;99.90;;;;;;5070360;28;20060;-80
2023/01/25 09:06:01;;;;;;;75.03;33.35;;;-0.20;99.90;;;;;;5067142;28;20055;-81
2023/01/25 09:08:27;;;;;;;73.63;32.17;;;-0.20;99.90;;;;;;5065122;28;20043;-80
2023/01/25 09:10:52;;;;;;;69.63;32.28;;;-0.20;99.90;;;;;;5058506;28;20039;-79
2023/01/25 09:13:18;;;;;;;73.22;31.02;;;-0.20;99.90;;;;;;5084679;28;20521;-79
2023/01/25 09:15:44;;;;;;;74.10;34.25;;;-0.10;99.90;;;;;;5047811;27;20082;-86
2023/01/25 09:18:10;;;;;;;83.75;37.00;;;-0.20;99.90;;;;;;5077567;28;20044;-79
2023/01/25 09:20:38;;;;;;;73.82;32.33;;;-0.10;99.90;;;;;;5074294;28;20799;-80
2023/01/25 09:23:04;;;;;;;82.95;36.35;;;-0.20;99.90;;;;;;5076386;28;20376;-79
2023/01/25 09:25:30;;;;;;;74.80;32.45;;;-0.20;99.90;;;;;;5071927;28;20147;-79
2023/01/25 09:27:55;;;;;;;73.53;31.92;;;-0.20;99.90;;;;;;5049679;28;20123;-79
2023/01/25 09:30:21;;;;;;;76.03;33.33;;;-0.10;99.90;;;;;;5077846;28;20042;-82
2023/01/25 09:32:50;;;;;;;80.75;35.55;;;-0.10;99.90;;;;;;5075862;27;20148;-86
2023/01/25 09:35:16;;;;;;;78.80;33.08;;;0.00;99.90;;;;;;5087753;27;20482;-80
2023/01/25 09:37:42;;;;;;;73.82;32.92;;;0.00;99.90;;;;;;5075936;28;20048;-79
2023/01/25 09:40:32;;;;;;;76.80;33.05;;;0.10;99.90;;;;;;5075547;28;20038;-85
2023/01/25 09:43:16;;;;;;;78.45;33.85;;;0.10;99.90;;;;;;5089239;28;20442;-79
2023/01/25 09:45:42;;;;;;;71.60;31.45;;;0.10;99.90;;;;;;5080663;28;20048;-80
2023/01/25 09:48:35;;;;;;;76.05;31.70;;;0.10;99.90;;;;;;5084464;27;20173;-80
2023/01/25 09:51:15;;;;;;;64.82;29.33;;;0.10;99.90;;;;;;5089939;27;20036;-81
2023/01/25 09:53:50;;;;;;;70.95;30.38;;;0.00;99.90;;;;;;5095909;28;20048;-86
2023/01/25 09:56:44;;;;;;;67.85;28.67;;;-0.10;99.90;;;;;;5087300;28;20103;-81
2023/01/25 09:59:15;;;;;;;73.20;28.77;;;-0.10;99.90;;;;;;5069638;28;20076;-81
2023/01/25 10:02:13;;;;;;;75.28;28.95;;;-0.10;99.90;;;;;;5075130;28;20489;-81
2023/01/25 10:04:43;;;;;;;86.38;34.00;;;-0.20;99.90;;;;;;5059379;28;20066;-81
2023/01/25 10:07:38;;;;;;;71.88;30.00;;;-0.20;99.90;;;;;;5094292;28;20396;-81
2023/01/25 10:10:20;;;;;;;71.55;28.55;;;-0.20;99.90;;;;;;5090664;28;20040;-81
2023/01/25 10:12:46;;;;;;;67.88;27.60;;;-0.20;99.90;;;;;;5075456;28;20474;-82
2023/01/25 10:15:19;;;;;;;70.28;28.83;;;-0.20;99.90;;;;;;5069580;28;20047;-81
2023/01/25 10:17:46;;;;;;;73.38;30.08;;;-0.20;99.90;;;;;;5074215;28;20159;-81
2023/01/25 10:20:32;;;;;;;73.25;29.85;;;-0.20;99.90;;;;;;5085258;28;20671;-82
2023/01/25 10:23:19;;;;;;;75.73;28.77;;;-0.20;99.90;;;;;;5091324;28;20055;-81
2023/01/25 10:25:53;;;;;;;72.28;29.45;;;-0.20;99.90;;;;;;5090614;28;20039;-82
2023/01/25 10:28:37;;;;;;;74.30;30.48;;;-0.20;99.90;;;;;;5089626;28;20088;-81
2023/01/25 10:31:14;;;;;;;76.65;30.23;;;-0.20;99.90;;;;;;5074980;28;20477;-81
2023/01/25 10:33:43;;;;;;;77.35;29.48;;;-0.20;99.90;;;;;;5090585;28;20134;-81
2023/01/25 10:36:16;;;;;;;73.22;29.30;;;0.00;99.90;;;;;;5096687;28;20059;-82
2023/01/25 10:38:47;;;;;;;72.95;30.65;;;-0.20;99.90;;;;;;5098700;28;20047;-82
2023/01/25 10:41:37;;;;;;;73.82;30.52;;;-0.10;99.90;;;;;;5083785;27;20044;-84
2023/01/25 10:44:23;;;;;;;69.25;29.45;;;-0.10;99.90;;;;;;5073713;28;20516;-88
2023/01/25 10:47:06;;;;;;;71.82;30.63;;;-0.10;99.90;;;;;;5082813;28;20100;-81
2023/01/25 10:49:49;;;;;;;69.95;29.73;;;-0.10;99.90;;;;;;5084622;28;20046;-82
2023/01/25 10:52:19;;;;;;;71.65;27.85;;;0.00;99.90;;;;;;5091420;28;20044;-81
2023/01/25 10:54:50;;;;;;;72.15;30.45;;;0.00;99.90;;;;;;5077832;28;20055;-80
2023/01/25 10:57:21;;;;;;;70.05;28.52;;;-0.10;99.90;;;;;;5083861;28;20051;-79
2023/01/25 10:59:51;;;;;;;69.10;27.90;;;-0.10;99.90;;;;;;5069166;28;20040;-79
2023/01/25 11:02:34;;;;;;;69.05;28.65;;;0.00;99.90;;;;;;5051171;28;20051;-79
2023/01/25 11:05:17;;;;;;;67.78;26.73;;;0.00;99.90;;;;;;5070969;28;20075;-84
2023/01/25 11:07:46;;;;;;;71.25;28.38;;;-0.10;99.90;;;;;;5092361;28;20043;-79
2023/01/25 11:10:36;;;;;;;72.65;28.15;;;-0.10;99.90;;;;;;5069282;28;20089;-79
2023/01/25 11:13:14;;;;;;;65.93;25.35;;;-0.10;99.90;;;;;;5047450;28;20079;-79
2023/01/25 11:15:46;;;;;;;64.03;25.98;;;-0.10;99.90;;;;;;5086612;28;20055;-79
2023/01/25 11:18:19;;;;;;;62.25;26.35;;;-0.10;99.90;;;;;;5084912;28;20122;-79
2023/01/25 11:20:45;;;;;;;62.35;24.73;;;-0.10;99.90;;;;;;5077488;28;20064;-81
2023/01/25 11:23:25;;;;;;;67.78;26.70;;;-0.10;99.90;;;;;;5085493;28;20104;-80
2023/01/25 11:25:51;;;;;;;65.30;25.65;;;-0.10;99.90;;;;;;5075533;28;20075;-79
2023/01/25 11:28:22;;;;;;;68.57;26.83;;;-0.10;99.90;;;;;;5086400;28;20397;-79
2023/01/25 11:30:49;;;;;;;63.42;26.08;;;-0.10;99.90;;;;;;5081642;28;20051;-80
2023/01/25 11:33:18;;;;;;;72.05;26.73;;;-0.10;99.90;;;;;;5088812;28;20040;-80
2023/01/25 11:36:14;;;;;;;66.68;25.90;;;0.00;99.90;;;;;;5066966;28;20488;-79
2023/01/25 11:39:06;;;;;;;63.20;25.55;;;0.00;99.90;;;;;;5080612;28;20050;-81
2023/01/25 11:41:53;;;;;;;66.13;25.08;;;-0.10;99.90;;;;;;5083126;28;20047;-80
2023/01/25 11:44:25;;;;;;;68.60;27.67;;;-0.10;99.90;;;;;;5066161;28;20370;-80
2023/01/25 11:47:10;;;;;;;75.38;29.55;;;-0.10;99.90;;;;;;5072162;28;20040;-81
2023/01/25 11:50:01;;;;;;;70.43;26.40;;;0.00;99.90;;;;;;5077873;28;20043;-81
2023/01/25 11:52:32;;;;;;;64.20;26.70;;;0.10;99.90;;;;;;5078955;28;20086;-81
2023/01/25 11:54:58;;;;;;;68.70;25.77;;;0.00;99.90;;;;;;5079891;28;20039;-85
2023/01/25 11:57:45;;;;;;;70.63;27.67;;;0.00;99.90;;;;;;5071829;28;20032;-81
2023/01/25 12:00:17;;;;;;;73.85;27.13;;;0.00;99.90;;;;;;5078583;28;20051;-85
2023/01/25 12:03:35;;;;;;;72.25;27.90;;;0.00;99.90;;;;;;5088503;28;20040;-79
2023/01/25 12:06:38;;;;;;;70.90;26.77;;;0.00;99.90;;;;;;5088633;28;20062;-85
2023/01/25 12:09:48;;;;;;;71.93;27.23;;;0.10;99.90;;;;;;5086356;28;20054;-85
2023/01/25 12:12:34;;;;;;;70.97;26.95;;;0.10;99.90;;;;;;5094809;28;20058;-79
2023/01/25 12:15:07;;;;;;;74.68;28.17;;;0.00;99.90;;;;;;5069602;27;20760;-78
2023/01/25 12:18:02;;;;;;;83.05;28.63;;;0.00;99.90;;;;;;5082625;28;20179;-79
2023/01/25 12:20:50;;;;;;;79.53;28.20;;;0.00;99.90;;;;;;5081248;28;20135;-79
2023/01/25 12:23:25;;;;;;;76.95;28.00;;;0.00;99.90;;;;;;5099420;28;20126;-79
2023/01/25 12:25:54;;;;;;;79.30;28.10;;;0.00;99.90;;;;;;5071840;28;20831;-79
2023/01/25 12:28:40;;;;;;;80.97;28.25;;;0.00;99.90;;;;;;5085789;28;20039;-79
2023/01/25 12:31:15;;;;;;;75.28;28.60;;;0.10;99.90;;;;;;5058553;28;20078;-79
2023/01/25 12:33:57;;;;;;;81.47;29.42;;;0.10;99.90;;;;;;5084008;28;20078;-83
2023/01/25 12:36:43;;;;;;;80.60;27.67;;;0.10;99.90;;;;;;5068590;28;20511;-80
2023/01/25 12:39:13;;;;;;;78.35;29.40;;;0.10;99.90;;;;;;5094667;28;20489;-85
2023/01/25 12:41:55;;;;;;;84.65;30.50;;;0.20;99.90;;;;;;5061559;28;20115;-79
2023/01/25 12:44:26;;;;;;;80.95;29.00;;;0.10;99.90;;;;;;5092421;28;20071;-80
2023/01/25 12:47:08;;;;;;;80.45;28.67;;;0.20;99.90;;;;;;5097791;27;20122;-79
2023/01/25 12:49:52;;;;;;;77.43;26.48;;;0.20;99.90;;;;;;5075210;28;20047;-79